sensor_id;sensor_type;location;lat;lon;timestamp;temperature;humidity
4635;DHT22;2330;48.158;11.816;2022-08-21T00:00:15;16.20;98.50
4635;DHT22;2330;48.158;11.816;2022-08-21T00:02:55;16.20;98.50
4635;DHT22;2330;48.158;11.816;2022-08-21T00:05:24;16.10;98.50
4635;DHT22;2330;48.158;11.816;2022-08-21T00:07:51;16.10;98.50
4635;DHT22;2330;48.158;11.816;2022-08-21T00:10:19;16.10;98.50
4635;DHT22;2330;48.158;11.816;2022-08-21T00:12:46;16.10;98.50
4635;DHT22;2330;48.158;11.816;2022-08-21T00:15:17;16.10;98.50
4635;DHT22;2330;48.158;11.816;2022-08-21T00:17:44;16.10;98.50
4635;DHT22;2330;48.158;11.816;2022-08-21T00:20:12;16.10;98.50
4635;DHT22;2330;48.158;11.816;2022-08-21T00:22:40;16.10;98.50
4635;DHT22;2330;48.158;11.816;2022-08-21T00:25:07;16.10;98.50
4635;DHT22;2330;48.158;11.816;2022-08-21T00:27:35;16.10;98.50
4635;DHT22;2330;48.158;11.816;2022-08-21T00:30:04;16.20;98.50
4635;DHT22;2330;48.158;11.816;2022-08-21T00:32:31;16.20;98.50
4635;DHT22;2330;48.158;11.816;2022-08-21T00:34:57;16.20;98.50
4635;DHT22;2330;48.158;11.816;2022-08-21T00:37:24;16.20;98.50
4635;DHT22;2330;48.158;11.816;2022-08-21T00:39:51;16.20;98.50
4635;DHT22;2330;48.158;11.816;2022-08-21T00:42:19;16.20;98.50
4635;DHT22;2330;48.158;11.816;2022-08-21T00:44:48;16.20;98.50
4635;DHT22;2330;48.158;11.816;2022-08-21T00:47:16;16.10;98.50
4635;DHT22;2330;48.158;11.816;2022-08-21T00:49:43;16.10;98.50
4635;DHT22;2330;48.158;11.816;2022-08-21T00:52:15;16.10;98.50
4635;DHT22;2330;48.158;11.816;2022-08-21T00:54:44;16.10;98.50
4635;DHT22;2330;48.158;11.816;2022-08-21T00:57:20;16.00;98.50
4635;DHT22;2330;48.158;11.816;2022-08-21T00:59:52;16.00;98.50
4635;DHT22;2330;48.158;11.816;2022-08-21T01:02:21;16.00;98.50
4635;DHT22;2330;48.158;11.816;2022-08-21T01:04:48;16.00;98.50
4635;DHT22;2330;48.158;11.816;2022-08-21T01:07:15;15.90;98.50
4635;DHT22;2330;48.158;11.816;2022-08-21T01:09:46;15.90;98.50
4635;DHT22;2330;48.158;11.816;2022-08-21T01:12:14;15.90;98.50
4635;DHT22;2330;48.158;11.816;2022-08-21T01:14:41;15.90;98.50
4635;DHT22;2330;48.158;11.816;2022-08-21T01:17:13;15.90;98.50
4635;DHT22;2330;48.158;11.816;2022-08-21T01:19:42;15.90;98.50
4635;DHT22;2330;48.158;11.816;2022-08-21T01:22:09;15.90;98.50
4635;DHT22;2330;48.158;11.816;2022-08-21T01:24:36;15.90;98.50
4635;DHT22;2330;48.158;11.816;2022-08-21T01:27:03;15.80;98.50
4635;DHT22;2330;48.158;11.816;2022-08-21T01:29:45;15.80;98.50
4635;DHT22;2330;48.158;11.816;2022-08-21T01:32:15;15.80;98.50
4635;DHT22;2330;48.158;11.816;2022-08-21T01:34:44;15.80;98.50
4635;DHT22;2330;48.158;11.816;2022-08-21T01:37:12;15.80;98.50
4635;DHT22;2330;48.158;11.816;2022-08-21T01:39:39;15.80;98.50
4635;DHT22;2330;48.158;11.816;2022-08-21T01:42:09;15.80;98.50
4635;DHT22;2330;48.158;11.816;2022-08-21T01:44:35;15.80;98.50
4635;DHT22;2330;48.158;11.816;2022-08-21T01:47:06;15.70;98.50
4635;DHT22;2330;48.158;11.816;2022-08-21T01:49:34;15.70;98.50
4635;DHT22;2330;48.158;11.816;2022-08-21T01:52:02;15.70;98.50
4635;DHT22;2330;48.158;11.816;2022-08-21T01:54:29;15.70;98.50
4635;DHT22;2330;48.158;11.816;2022-08-21T01:56:58;15.70;98.50
4635;DHT22;2330;48.158;11.816;2022-08-21T01:59:26;15.70;98.50
4635;DHT22;2330;48.158;11.816;2022-08-21T02:01:53;15.70;98.50
4635;DHT22;2330;48.158;11.816;2022-08-21T02:04:23;15.70;98.50
4635;DHT22;2330;48.158;11.816;2022-08-21T02:06:50;15.70;98.50
4635;DHT22;2330;48.158;11.816;2022-08-21T02:09:18;15.70;98.50
4635;DHT22;2330;48.158;11.816;2022-08-21T02:11:45;15.70;98.50
4635;DHT22;2330;48.158;11.816;2022-08-21T02:14:14;15.60;98.50
4635;DHT22;2330;48.158;11.816;2022-08-21T02:16:58;15.60;98.50
4635;DHT22;2330;48.158;11.816;2022-08-21T02:19:35;15.60;98.50
4635;DHT22;2330;48.158;11.816;2022-08-21T02:22:07;15.60;98.50
4635;DHT22;2330;48.158;11.816;2022-08-21T02:24:35;15.60;98.50
4635;DHT22;2330;48.158;11.816;2022-08-21T02:27:21;15.50;98.50
4635;DHT22;2330;48.158;11.816;2022-08-21T02:29:54;15.50;98.50
4635;DHT22;2330;48.158;11.816;2022-08-21T02:32:21;15.40;98.50
4635;DHT22;2330;48.158;11.816;2022-08-21T02:34:48;15.40;98.50
4635;DHT22;2330;48.158;11.816;2022-08-21T02:37:15;15.40;98.50
4635;DHT22;2330;48.158;11.816;2022-08-21T02:39:42;15.30;98.50
4635;DHT22;2330;48.158;11.816;2022-08-21T02:42:09;15.30;98.50
4635;DHT22;2330;48.158;11.816;2022-08-21T02:44:35;15.30;98.50
4635;DHT22;2330;48.158;11.816;2022-08-21T02:47:02;15.30;98.50
4635;DHT22;2330;48.158;11.816;2022-08-21T02:49:29;15.30;98.50
4635;DHT22;2330;48.158;11.816;2022-08-21T02:51:55;15.20;98.50
4635;DHT22;2330;48.158;11.816;2022-08-21T02:54:22;15.20;98.50
4635;DHT22;2330;48.158;11.816;2022-08-21T02:56:49;15.20;98.50
4635;DHT22;2330;48.158;11.816;2022-08-21T02:59:15;15.20;98.50
4635;DHT22;2330;48.158;11.816;2022-08-21T03:01:42;15.20;98.50
4635;DHT22;2330;48.158;11.816;2022-08-21T03:04:09;15.20;98.50
4635;DHT22;2330;48.158;11.816;2022-08-21T03:06:36;15.20;98.50
4635;DHT22;2330;48.158;11.816;2022-08-21T03:09:03;15.20;98.50
4635;DHT22;2330;48.158;11.816;2022-08-21T03:11:30;15.20;98.50
4635;DHT22;2330;48.158;11.816;2022-08-21T03:13:57;15.20;98.50
4635;DHT22;2330;48.158;11.816;2022-08-21T03:16:23;15.10;98.50
4635;DHT22;2330;48.158;11.816;2022-08-21T03:18:50;15.10;98.50
4635;DHT22;2330;48.158;11.816;2022-08-21T03:21:17;15.10;98.50
4635;DHT22;2330;48.158;11.816;2022-08-21T03:23:45;15.00;98.50
4635;DHT22;2330;48.158;11.816;2022-08-21T03:26:12;15.00;98.50
4635;DHT22;2330;48.158;11.816;2022-08-21T03:28:39;15.00;98.50
4635;DHT22;2330;48.158;11.816;2022-08-21T03:31:06;15.00;98.50
4635;DHT22;2330;48.158;11.816;2022-08-21T03:33:32;15.00;98.50
4635;DHT22;2330;48.158;11.816;2022-08-21T03:36:02;15.00;98.50
4635;DHT22;2330;48.158;11.816;2022-08-21T03:38:31;14.90;98.50
4635;DHT22;2330;48.158;11.816;2022-08-21T03:40:59;14.90;98.50
4635;DHT22;2330;48.158;11.816;2022-08-21T03:43:27;14.90;98.50
4635;DHT22;2330;48.158;11.816;2022-08-21T03:45:58;14.90;98.50
4635;DHT22;2330;48.158;11.816;2022-08-21T03:48:25;14.90;98.50
4635;DHT22;2330;48.158;11.816;2022-08-21T03:50:52;14.90;98.50
4635;DHT22;2330;48.158;11.816;2022-08-21T03:53:19;14.90;98.50
4635;DHT22;2330;48.158;11.816;2022-08-21T03:55:48;14.90;98.50
4635;DHT22;2330;48.158;11.816;2022-08-21T03:58:17;14.90;98.50
4635;DHT22;2330;48.158;11.816;2022-08-21T04:00:49;14.90;98.50
4635;DHT22;2330;48.158;11.816;2022-08-21T04:03:17;14.80;98.50
4635;DHT22;2330;48.158;11.816;2022-08-21T04:05:44;14.80;98.50
4635;DHT22;2330;48.158;11.816;2022-08-21T04:08:13;14.70;98.50
4635;DHT22;2330;48.158;11.816;2022-08-21T04:10:40;14.70;98.50
4635;DHT22;2330;48.158;11.816;2022-08-21T04:13:08;14.60;98.50
4635;DHT22;2330;48.158;11.816;2022-08-21T04:15:35;14.60;98.50
4635;DHT22;2330;48.158;11.816;2022-08-21T04:18:04;14.60;98.50
4635;DHT22;2330;48.158;11.816;2022-08-21T04:20:31;14.50;98.50
4635;DHT22;2330;48.158;11.816;2022-08-21T04:22:58;14.60;98.50
4635;DHT22;2330;48.158;11.816;2022-08-21T04:25:25;14.60;98.50
4635;DHT22;2330;48.158;11.816;2022-08-21T04:27:52;14.60;98.50
4635;DHT22;2330;48.158;11.816;2022-08-21T04:30:19;14.50;98.50
4635;DHT22;2330;48.158;11.816;2022-08-21T04:32:53;14.50;98.50
4635;DHT22;2330;48.158;11.816;2022-08-21T04:35:21;14.50;98.50
4635;DHT22;2330;48.158;11.816;2022-08-21T04:37:49;14.50;98.50
4635;DHT22;2330;48.158;11.816;2022-08-21T04:40:17;14.40;98.50
4635;DHT22;2330;48.158;11.816;2022-08-21T04:42:50;14.40;98.50
4635;DHT22;2330;48.158;11.816;2022-08-21T04:47:49;14.40;98.50
4635;DHT22;2330;48.158;11.816;2022-08-21T04:50:19;14.40;98.50
4635;DHT22;2330;48.158;11.816;2022-08-21T04:52:46;14.40;98.50
4635;DHT22;2330;48.158;11.816;2022-08-21T04:55:15;14.40;98.50
4635;DHT22;2330;48.158;11.816;2022-08-21T04:57:42;14.40;98.50
4635;DHT22;2330;48.158;11.816;2022-08-21T05:00:16;14.40;98.50
4635;DHT22;2330;48.158;11.816;2022-08-21T05:02:46;14.50;98.50
4635;DHT22;2330;48.158;11.816;2022-08-21T05:05:16;14.50;98.50
4635;DHT22;2330;48.158;11.816;2022-08-21T05:07:44;14.60;98.50
4635;DHT22;2330;48.158;11.816;2022-08-21T05:10:13;14.60;98.50
4635;DHT22;2330;48.158;11.816;2022-08-21T05:12:42;14.70;98.50
4635;DHT22;2330;48.158;11.816;2022-08-21T05:15:10;14.70;98.50
4635;DHT22;2330;48.158;11.816;2022-08-21T05:17:40;14.80;98.50
4635;DHT22;2330;48.158;11.816;2022-08-21T05:20:09;14.90;98.50
4635;DHT22;2330;48.158;11.816;2022-08-21T05:22:36;15.00;98.50
4635;DHT22;2330;48.158;11.816;2022-08-21T05:25:04;15.20;98.50
4635;DHT22;2330;48.158;11.816;2022-08-21T05:27:36;15.30;98.50
4635;DHT22;2330;48.158;11.816;2022-08-21T05:30:06;15.50;98.50
4635;DHT22;2330;48.158;11.816;2022-08-21T05:32:34;15.70;98.50
4635;DHT22;2330;48.158;11.816;2022-08-21T05:35:05;15.90;98.50
4635;DHT22;2330;48.158;11.816;2022-08-21T05:37:33;16.10;98.50
4635;DHT22;2330;48.158;11.816;2022-08-21T05:40:00;16.20;98.50
4635;DHT22;2330;48.158;11.816;2022-08-21T05:42:48;16.40;98.50
4635;DHT22;2330;48.158;11.816;2022-08-21T05:45:25;16.50;98.50
4635;DHT22;2330;48.158;11.816;2022-08-21T05:50:37;16.80;98.50
4635;DHT22;2330;48.158;11.816;2022-08-21T05:53:06;16.90;98.50
4635;DHT22;2330;48.158;11.816;2022-08-21T05:55:34;17.10;98.50
4635;DHT22;2330;48.158;11.816;2022-08-21T05:58:02;17.20;98.50
4635;DHT22;2330;48.158;11.816;2022-08-21T06:00:29;17.30;98.50
4635;DHT22;2330;48.158;11.816;2022-08-21T06:02:55;17.30;98.50
4635;DHT22;2330;48.158;11.816;2022-08-21T06:05:23;17.50;98.50
4635;DHT22;2330;48.158;11.816;2022-08-21T06:08:03;17.70;98.50
4635;DHT22;2330;48.158;11.816;2022-08-21T06:10:30;17.90;98.50
4635;DHT22;2330;48.158;11.816;2022-08-21T06:12:57;17.80;98.50
4635;DHT22;2330;48.158;11.816;2022-08-21T06:15:24;17.70;98.50
4635;DHT22;2330;48.158;11.816;2022-08-21T06:17:53;17.70;98.50
4635;DHT22;2330;48.158;11.816;2022-08-21T06:20:19;17.70;98.50
4635;DHT22;2330;48.158;11.816;2022-08-21T06:22:46;17.90;98.50
4635;DHT22;2330;48.158;11.816;2022-08-21T06:25:13;18.00;98.50
4635;DHT22;2330;48.158;11.816;2022-08-21T06:27:40;18.30;98.50
4635;DHT22;2330;48.158;11.816;2022-08-21T06:30:07;18.30;98.50
4635;DHT22;2330;48.158;11.816;2022-08-21T06:32:34;18.60;98.50
4635;DHT22;2330;48.158;11.816;2022-08-21T06:35:02;18.70;98.50
4635;DHT22;2330;48.158;11.816;2022-08-21T06:37:28;19.00;98.50
4635;DHT22;2330;48.158;11.816;2022-08-21T06:39:55;19.10;98.50
4635;DHT22;2330;48.158;11.816;2022-08-21T06:42:24;19.00;98.50
4635;DHT22;2330;48.158;11.816;2022-08-21T06:44:54;19.20;98.50
4635;DHT22;2330;48.158;11.816;2022-08-21T06:47:20;19.30;98.50
4635;DHT22;2330;48.158;11.816;2022-08-21T06:49:47;19.60;98.50
4635;DHT22;2330;48.158;11.816;2022-08-21T06:52:15;19.80;98.50
4635;DHT22;2330;48.158;11.816;2022-08-21T06:54:42;19.90;98.50
4635;DHT22;2330;48.158;11.816;2022-08-21T06:57:09;20.10;98.50
4635;DHT22;2330;48.158;11.816;2022-08-21T06:59:35;20.20;98.50
4635;DHT22;2330;48.158;11.816;2022-08-21T07:02:03;20.30;98.50
4635;DHT22;2330;48.158;11.816;2022-08-21T07:04:30;20.50;98.50
4635;DHT22;2330;48.158;11.816;2022-08-21T07:06:56;20.60;98.50
4635;DHT22;2330;48.158;11.816;2022-08-21T07:09:23;20.70;98.50
4635;DHT22;2330;48.158;11.816;2022-08-21T07:11:54;20.80;98.50
4635;DHT22;2330;48.158;11.816;2022-08-21T07:14:21;20.90;98.50
4635;DHT22;2330;48.158;11.816;2022-08-21T07:16:49;21.10;98.50
4635;DHT22;2330;48.158;11.816;2022-08-21T07:19:17;21.20;98.50
4635;DHT22;2330;48.158;11.816;2022-08-21T07:21:44;21.30;98.50
4635;DHT22;2330;48.158;11.816;2022-08-21T07:24:12;21.30;98.50
4635;DHT22;2330;48.158;11.816;2022-08-21T07:26:38;21.40;98.50
4635;DHT22;2330;48.158;11.816;2022-08-21T07:29:06;21.70;98.50
4635;DHT22;2330;48.158;11.816;2022-08-21T07:31:33;21.90;98.50
4635;DHT22;2330;48.158;11.816;2022-08-21T07:33:59;21.80;98.50
4635;DHT22;2330;48.158;11.816;2022-08-21T07:36:26;21.80;98.50
4635;DHT22;2330;48.158;11.816;2022-08-21T07:38:53;21.90;97.30
4635;DHT22;2330;48.158;11.816;2022-08-21T07:41:24;22.00;98.50
4635;DHT22;2330;48.158;11.816;2022-08-21T07:43:52;22.20;98.00
4635;DHT22;2330;48.158;11.816;2022-08-21T07:46:19;22.20;95.90
4635;DHT22;2330;48.158;11.816;2022-08-21T07:48:46;22.30;98.50
4635;DHT22;2330;48.158;11.816;2022-08-21T07:51:15;22.50;96.50
4635;DHT22;2330;48.158;11.816;2022-08-21T07:53:51;22.60;96.00
4635;DHT22;2330;48.158;11.816;2022-08-21T07:56:18;22.70;96.30
4635;DHT22;2330;48.158;11.816;2022-08-21T07:58:45;22.80;95.90
4635;DHT22;2330;48.158;11.816;2022-08-21T08:01:12;23.00;95.70
4635;DHT22;2330;48.158;11.816;2022-08-21T08:03:40;23.10;95.70
4635;DHT22;2330;48.158;11.816;2022-08-21T08:06:08;23.00;94.80
4635;DHT22;2330;48.158;11.816;2022-08-21T08:08:39;23.20;95.40
4635;DHT22;2330;48.158;11.816;2022-08-21T08:11:09;23.30;94.10
4635;DHT22;2330;48.158;11.816;2022-08-21T08:13:43;23.10;94.80
4635;DHT22;2330;48.158;11.816;2022-08-21T08:16:10;22.80;94.70
4635;DHT22;2330;48.158;11.816;2022-08-21T08:18:37;22.70;95.40
4635;DHT22;2330;48.158;11.816;2022-08-21T08:21:04;22.80;95.20
4635;DHT22;2330;48.158;11.816;2022-08-21T08:23:31;23.00;95.70
4635;DHT22;2330;48.158;11.816;2022-08-21T08:25:59;23.10;94.60
4635;DHT22;2330;48.158;11.816;2022-08-21T08:28:26;23.40;95.70
4635;DHT22;2330;48.158;11.816;2022-08-21T08:30:53;23.70;93.60
4635;DHT22;2330;48.158;11.816;2022-08-21T08:33:21;23.80;93.60
4635;DHT22;2330;48.158;11.816;2022-08-21T08:35:49;23.80;93.50
4635;DHT22;2330;48.158;11.816;2022-08-21T08:38:18;23.70;92.10
4635;DHT22;2330;48.158;11.816;2022-08-21T08:43:35;24.10;92.10
4635;DHT22;2330;48.158;11.816;2022-08-21T08:46:08;24.10;91.60
4635;DHT22;2330;48.158;11.816;2022-08-21T08:48:47;24.30;90.80
4635;DHT22;2330;48.158;11.816;2022-08-21T08:51:27;24.60;92.90
4635;DHT22;2330;48.158;11.816;2022-08-21T08:53:59;24.40;89.90
4635;DHT22;2330;48.158;11.816;2022-08-21T08:56:30;24.10;92.30
4635;DHT22;2330;48.158;11.816;2022-08-21T08:59:23;23.40;91.70
4635;DHT22;2330;48.158;11.816;2022-08-21T09:01:47;23.50;93.50
4635;DHT22;2330;48.158;11.816;2022-08-21T09:04:21;23.60;94.10
4635;DHT22;2330;48.158;11.816;2022-08-21T09:09:38;23.60;93.40
4635;DHT22;2330;48.158;11.816;2022-08-21T09:12:18;23.50;93.90
4635;DHT22;2330;48.158;11.816;2022-08-21T09:14:56;23.40;94.50
4635;DHT22;2330;48.158;11.816;2022-08-21T09:20:27;23.60;95.30
4635;DHT22;2330;48.158;11.816;2022-08-21T09:25:43;23.90;94.00
4635;DHT22;2330;48.158;11.816;2022-08-21T09:28:12;23.70;95.10
4635;DHT22;2330;48.158;11.816;2022-08-21T09:30:41;23.50;94.30
4635;DHT22;2330;48.158;11.816;2022-08-21T09:33:12;23.60;93.70
4635;DHT22;2330;48.158;11.816;2022-08-21T09:35:53;23.90;92.10
4635;DHT22;2330;48.158;11.816;2022-08-21T09:38:35;24.10;93.30
4635;DHT22;2330;48.158;11.816;2022-08-21T09:41:06;24.50;93.50
4635;DHT22;2330;48.158;11.816;2022-08-21T09:43:34;24.30;90.70
4635;DHT22;2330;48.158;11.816;2022-08-21T09:46:11;24.00;92.90
4635;DHT22;2330;48.158;11.816;2022-08-21T09:48:47;24.10;92.20
4635;DHT22;2330;48.158;11.816;2022-08-21T09:51:18;24.10;91.50
4635;DHT22;2330;48.158;11.816;2022-08-21T09:53:52;24.40;92.60
4635;DHT22;2330;48.158;11.816;2022-08-21T09:56:51;24.70;91.00
4635;DHT22;2330;48.158;11.816;2022-08-21T09:59:37;24.90;90.00
4635;DHT22;2330;48.158;11.816;2022-08-21T10:02:22;24.70;88.80
4635;DHT22;2330;48.158;11.816;2022-08-21T10:04:53;23.70;90.80
4635;DHT22;2330;48.158;11.816;2022-08-21T10:07:22;23.60;91.00
4635;DHT22;2330;48.158;11.816;2022-08-21T10:10:06;23.90;91.40
4635;DHT22;2330;48.158;11.816;2022-08-21T10:15:34;24.00;92.90
4635;DHT22;2330;48.158;11.816;2022-08-21T10:18:28;24.10;93.40
4635;DHT22;2330;48.158;11.816;2022-08-21T10:21:01;24.60;91.60
4635;DHT22;2330;48.158;11.816;2022-08-21T10:26:44;24.80;91.40
4635;DHT22;2330;48.158;11.816;2022-08-21T10:32:07;24.60;92.40
4635;DHT22;2330;48.158;11.816;2022-08-21T10:34:53;24.60;93.30
4635;DHT22;2330;48.158;11.816;2022-08-21T10:37:36;24.60;91.40
4635;DHT22;2330;48.158;11.816;2022-08-21T10:48:22;25.10;85.90
4635;DHT22;2330;48.158;11.816;2022-08-21T10:50:54;25.60;87.40
4635;DHT22;2330;48.158;11.816;2022-08-21T10:56:23;25.80;85.80
4635;DHT22;2330;48.158;11.816;2022-08-21T10:59:29;24.50;90.00
4635;DHT22;2330;48.158;11.816;2022-08-21T11:04:36;23.00;92.60
4635;DHT22;2330;48.158;11.816;2022-08-21T11:07:38;23.00;92.40
4635;DHT22;2330;48.158;11.816;2022-08-21T11:10:40;23.00;91.50
4635;DHT22;2330;48.158;11.816;2022-08-21T11:13:37;23.00;91.80
4635;DHT22;2330;48.158;11.816;2022-08-21T11:16:31;23.20;92.60
4635;DHT22;2330;48.158;11.816;2022-08-21T11:19:13;23.90;93.70
4635;DHT22;2330;48.158;11.816;2022-08-21T11:21:51;24.10;94.50
4635;DHT22;2330;48.158;11.816;2022-08-21T11:24:26;23.90;94.10
4635;DHT22;2330;48.158;11.816;2022-08-21T11:26:59;23.60;94.80
4635;DHT22;2330;48.158;11.816;2022-08-21T11:29:30;23.30;96.50
4635;DHT22;2330;48.158;11.816;2022-08-21T11:43:39;26.00;88.40
4635;DHT22;2330;48.158;11.816;2022-08-21T11:51:27;26.70;84.00
4635;DHT22;2330;48.158;11.816;2022-08-21T11:54:46;26.00;85.60
4635;DHT22;2330;48.158;11.816;2022-08-21T12:02:35;26.20;87.50
4635;DHT22;2330;48.158;11.816;2022-08-21T12:05:12;25.70;87.50
4635;DHT22;2330;48.158;11.816;2022-08-21T12:08:00;25.20;88.30
4635;DHT22;2330;48.158;11.816;2022-08-21T12:10:37;24.90;88.60
4635;DHT22;2330;48.158;11.816;2022-08-21T12:13:10;24.50;90.20
4635;DHT22;2330;48.158;11.816;2022-08-21T12:15:38;24.00;93.30
4635;DHT22;2330;48.158;11.816;2022-08-21T12:18:18;24.00;94.60
4635;DHT22;2330;48.158;11.816;2022-08-21T12:21:16;24.00;93.60
4635;DHT22;2330;48.158;11.816;2022-08-21T12:26:48;24.80;90.60
4635;DHT22;2330;48.158;11.816;2022-08-21T12:29:29;25.00;89.20
4635;DHT22;2330;48.158;11.816;2022-08-21T12:32:23;25.30;87.30
4635;DHT22;2330;48.158;11.816;2022-08-21T12:35:02;25.50;88.10
4635;DHT22;2330;48.158;11.816;2022-08-21T12:37:50;25.60;86.20
4635;DHT22;2330;48.158;11.816;2022-08-21T12:40:25;25.60;87.50
4635;DHT22;2330;48.158;11.816;2022-08-21T12:42:55;26.00;85.20
4635;DHT22;2330;48.158;11.816;2022-08-21T12:48:06;26.20;84.10
4635;DHT22;2330;48.158;11.816;2022-08-21T12:50:49;25.70;84.30
4635;DHT22;2330;48.158;11.816;2022-08-21T12:53:30;25.20;85.50
4635;DHT22;2330;48.158;11.816;2022-08-21T12:56:02;24.70;87.90
4635;DHT22;2330;48.158;11.816;2022-08-21T12:58:31;25.20;88.10
4635;DHT22;2330;48.158;11.816;2022-08-21T13:01:04;25.50;89.30
4635;DHT22;2330;48.158;11.816;2022-08-21T13:03:34;25.10;87.70
4635;DHT22;2330;48.158;11.816;2022-08-21T13:06:04;24.80;89.00
4635;DHT22;2330;48.158;11.816;2022-08-21T13:08:33;24.70;88.90
4635;DHT22;2330;48.158;11.816;2022-08-21T13:11:07;24.40;88.80
4635;DHT22;2330;48.158;11.816;2022-08-21T13:13:41;24.60;85.30
4635;DHT22;2330;48.158;11.816;2022-08-21T13:16:28;24.90;85.50
4635;DHT22;2330;48.158;11.816;2022-08-21T13:19:02;25.20;85.10
4635;DHT22;2330;48.158;11.816;2022-08-21T13:21:38;25.50;85.00
4635;DHT22;2330;48.158;11.816;2022-08-21T13:24:27;25.90;82.10
4635;DHT22;2330;48.158;11.816;2022-08-21T13:27:21;26.50;83.10
4635;DHT22;2330;48.158;11.816;2022-08-21T13:30:08;26.80;80.70
4635;DHT22;2330;48.158;11.816;2022-08-21T13:32:37;27.30;79.30
4635;DHT22;2330;48.158;11.816;2022-08-21T13:35:36;27.70;77.30
4635;DHT22;2330;48.158;11.816;2022-08-21T13:38:13;27.50;81.00
4635;DHT22;2330;48.158;11.816;2022-08-21T13:40:49;27.20;83.20
4635;DHT22;2330;48.158;11.816;2022-08-21T13:43:27;27.20;84.90
4635;DHT22;2330;48.158;11.816;2022-08-21T13:45:55;26.60;82.10
4635;DHT22;2330;48.158;11.816;2022-08-21T13:48:26;25.80;83.20
4635;DHT22;2330;48.158;11.816;2022-08-21T13:50:54;25.30;84.80
4635;DHT22;2330;48.158;11.816;2022-08-21T13:53:35;25.30;84.30
4635;DHT22;2330;48.158;11.816;2022-08-21T13:56:04;25.10;86.30
4635;DHT22;2330;48.158;11.816;2022-08-21T13:58:41;24.80;85.20
4635;DHT22;2330;48.158;11.816;2022-08-21T14:01:23;24.50;85.60
4635;DHT22;2330;48.158;11.816;2022-08-21T14:03:55;24.70;84.90
4635;DHT22;2330;48.158;11.816;2022-08-21T14:06:27;25.20;84.10
4635;DHT22;2330;48.158;11.816;2022-08-21T14:09:08;25.50;83.20
4635;DHT22;2330;48.158;11.816;2022-08-21T14:11:36;25.70;81.00
4635;DHT22;2330;48.158;11.816;2022-08-21T14:14:06;25.90;80.80
4635;DHT22;2330;48.158;11.816;2022-08-21T14:16:45;26.40;81.10
4635;DHT22;2330;48.158;11.816;2022-08-21T14:19:21;26.70;79.00
4635;DHT22;2330;48.158;11.816;2022-08-21T14:21:49;26.70;79.90
4635;DHT22;2330;48.158;11.816;2022-08-21T14:26:55;26.50;81.40
4635;DHT22;2330;48.158;11.816;2022-08-21T14:29:27;26.40;80.20
4635;DHT22;2330;48.158;11.816;2022-08-21T14:32:00;26.50;79.40
4635;DHT22;2330;48.158;11.816;2022-08-21T14:34:47;26.70;79.60
4635;DHT22;2330;48.158;11.816;2022-08-21T14:37:14;26.70;79.70
4635;DHT22;2330;48.158;11.816;2022-08-21T14:39:40;26.80;78.60
4635;DHT22;2330;48.158;11.816;2022-08-21T14:42:11;26.60;80.40
4635;DHT22;2330;48.158;11.816;2022-08-21T14:44:38;26.20;80.10
4635;DHT22;2330;48.158;11.816;2022-08-21T14:47:05;26.20;79.70
4635;DHT22;2330;48.158;11.816;2022-08-21T14:49:32;26.50;80.10
4635;DHT22;2330;48.158;11.816;2022-08-21T14:51:59;26.60;77.90
4635;DHT22;2330;48.158;11.816;2022-08-21T14:54:30;26.50;77.80
4635;DHT22;2330;48.158;11.816;2022-08-21T14:57:06;26.50;80.30
4635;DHT22;2330;48.158;11.816;2022-08-21T14:59:34;26.60;80.50
4635;DHT22;2330;48.158;11.816;2022-08-21T15:02:02;26.50;79.20
4635;DHT22;2330;48.158;11.816;2022-08-21T15:04:31;26.60;78.30
4635;DHT22;2330;48.158;11.816;2022-08-21T15:06:58;26.20;77.50
4635;DHT22;2330;48.158;11.816;2022-08-21T15:09:24;26.20;76.90
4635;DHT22;2330;48.158;11.816;2022-08-21T15:11:53;26.30;79.00
4635;DHT22;2330;48.158;11.816;2022-08-21T15:14:24;26.30;79.30
4635;DHT22;2330;48.158;11.816;2022-08-21T15:16:51;26.00;77.30
4635;DHT22;2330;48.158;11.816;2022-08-21T15:19:19;25.60;78.60
4635;DHT22;2330;48.158;11.816;2022-08-21T15:21:45;25.40;80.60
4635;DHT22;2330;48.158;11.816;2022-08-21T15:24:12;25.30;78.40
4635;DHT22;2330;48.158;11.816;2022-08-21T15:26:39;25.20;78.00
4635;DHT22;2330;48.158;11.816;2022-08-21T15:29:07;25.10;78.10
4635;DHT22;2330;48.158;11.816;2022-08-21T15:31:34;24.90;80.40
4635;DHT22;2330;48.158;11.816;2022-08-21T15:34:02;24.80;80.50
4635;DHT22;2330;48.158;11.816;2022-08-21T15:36:29;24.70;81.80
4635;DHT22;2330;48.158;11.816;2022-08-21T15:38:56;24.40;82.00
4635;DHT22;2330;48.158;11.816;2022-08-21T15:41:22;24.20;83.30
4635;DHT22;2330;48.158;11.816;2022-08-21T15:43:51;24.40;83.10
4635;DHT22;2330;48.158;11.816;2022-08-21T15:46:19;24.50;83.20
4635;DHT22;2330;48.158;11.816;2022-08-21T15:48:47;24.50;81.40
4635;DHT22;2330;48.158;11.816;2022-08-21T15:51:15;24.60;82.20
4635;DHT22;2330;48.158;11.816;2022-08-21T15:53:42;24.60;82.00
4635;DHT22;2330;48.158;11.816;2022-08-21T15:56:36;24.60;82.00
4635;DHT22;2330;48.158;11.816;2022-08-21T15:59:08;24.50;81.40
4635;DHT22;2330;48.158;11.816;2022-08-21T16:01:38;24.40;81.50
4635;DHT22;2330;48.158;11.816;2022-08-21T16:04:15;24.50;79.40
4635;DHT22;2330;48.158;11.816;2022-08-21T16:06:44;24.50;78.80
4635;DHT22;2330;48.158;11.816;2022-08-21T16:09:22;24.50;79.40
4635;DHT22;2330;48.158;11.816;2022-08-21T16:11:50;24.40;81.10
4635;DHT22;2330;48.158;11.816;2022-08-21T16:14:17;24.10;82.50
4635;DHT22;2330;48.158;11.816;2022-08-21T16:16:45;24.00;81.90
4635;DHT22;2330;48.158;11.816;2022-08-21T16:19:12;23.90;83.20
4635;DHT22;2330;48.158;11.816;2022-08-21T16:21:40;23.90;82.60
4635;DHT22;2330;48.158;11.816;2022-08-21T16:24:07;23.80;82.80
4635;DHT22;2330;48.158;11.816;2022-08-21T16:26:34;23.70;85.10
4635;DHT22;2330;48.158;11.816;2022-08-21T16:29:01;23.60;84.90
4635;DHT22;2330;48.158;11.816;2022-08-21T16:31:30;23.50;84.10
4635;DHT22;2330;48.158;11.816;2022-08-21T16:33:57;23.50;82.40
4635;DHT22;2330;48.158;11.816;2022-08-21T16:36:24;23.40;84.40
4635;DHT22;2330;48.158;11.816;2022-08-21T16:38:56;23.40;81.60
4635;DHT22;2330;48.158;11.816;2022-08-21T16:41:25;23.40;83.20
4635;DHT22;2330;48.158;11.816;2022-08-21T16:43:52;23.40;84.30
4635;DHT22;2330;48.158;11.816;2022-08-21T16:46:21;23.40;83.00
4635;DHT22;2330;48.158;11.816;2022-08-21T16:48:48;23.30;83.00
4635;DHT22;2330;48.158;11.816;2022-08-21T16:51:16;23.20;83.30
4635;DHT22;2330;48.158;11.816;2022-08-21T16:53:43;23.20;83.30
4635;DHT22;2330;48.158;11.816;2022-08-21T16:56:12;23.20;83.10
4635;DHT22;2330;48.158;11.816;2022-08-21T16:58:42;23.10;83.50
4635;DHT22;2330;48.158;11.816;2022-08-21T17:01:12;23.10;84.30
4635;DHT22;2330;48.158;11.816;2022-08-21T17:03:44;23.00;83.00
4635;DHT22;2330;48.158;11.816;2022-08-21T17:06:13;23.00;82.20
4635;DHT22;2330;48.158;11.816;2022-08-21T17:08:41;22.80;84.20
4635;DHT22;2330;48.158;11.816;2022-08-21T17:11:14;22.80;84.50
4635;DHT22;2330;48.158;11.816;2022-08-21T17:14:09;22.70;83.90
4635;DHT22;2330;48.158;11.816;2022-08-21T17:16:43;22.70;83.80
4635;DHT22;2330;48.158;11.816;2022-08-21T17:19:11;22.60;84.50